sensor_id;sensor_type;location;lat;lon;timestamp;P1;durP1;ratioP1;P2;durP2;ratioP2
77040;SDS011;65974;42.664;23.264;2023-01-15T00:01:41;12.40;;;6.95;;
77040;SDS011;65974;42.664;23.264;2023-01-15T00:04:07;13.90;;;6.95;;
77040;SDS011;65974;42.664;23.264;2023-01-15T00:06:36;17.30;;;7.50;;
77040;SDS011;65974;42.664;23.264;2023-01-15T00:09:03;11.70;;;7.00;;
77040;SDS011;65974;42.664;23.264;2023-01-15T00:11:30;10.30;;;6.53;;
77040;SDS011;65974;42.664;23.264;2023-01-15T00:13:55;11.73;;;7.00;;
77040;SDS011;65974;42.664;23.264;2023-01-15T00:16:21;15.05;;;8.35;;
77040;SDS011;65974;42.664;23.264;2023-01-15T00:18:48;11.63;;;7.05;;
77040;SDS011;65974;42.664;23.264;2023-01-15T00:21:15;7.53;;;4.70;;
77040;SDS011;65974;42.664;23.264;2023-01-15T00:23:41;8.70;;;4.97;;
77040;SDS011;65974;42.664;23.264;2023-01-15T00:26:29;13.60;;;7.47;;
77040;SDS011;65974;42.664;23.264;2023-01-15T00:29:14;9.15;;;5.32;;
77040;SDS011;65974;42.664;23.264;2023-01-15T00:31:40;20.33;;;9.80;;
77040;SDS011;65974;42.664;23.264;2023-01-15T00:34:08;20.80;;;10.55;;
77040;SDS011;65974;42.664;23.264;2023-01-15T00:36:33;12.57;;;8.73;;
77040;SDS011;65974;42.664;23.264;2023-01-15T00:39:02;18.98;;;10.02;;
77040;SDS011;65974;42.664;23.264;2023-01-15T00:41:28;20.42;;;11.07;;
77040;SDS011;65974;42.664;23.264;2023-01-15T00:43:56;16.20;;;9.30;;
77040;SDS011;65974;42.664;23.264;2023-01-15T00:46:22;22.48;;;10.10;;
77040;SDS011;65974;42.664;23.264;2023-01-15T00:48:47;17.75;;;7.35;;
77040;SDS011;65974;42.664;23.264;2023-01-15T00:51:13;15.68;;;7.10;;
77040;SDS011;65974;42.664;23.264;2023-01-15T00:53:39;8.93;;;4.78;;
77040;SDS011;65974;42.664;23.264;2023-01-15T00:56:07;5.50;;;4.82;;
77040;SDS011;65974;42.664;23.264;2023-01-15T00:58:38;11.90;;;6.50;;
77040;SDS011;65974;42.664;23.264;2023-01-15T01:01:05;15.93;;;6.93;;
77040;SDS011;65974;42.664;23.264;2023-01-15T01:03:30;7.63;;;5.28;;
77040;SDS011;65974;42.664;23.264;2023-01-15T01:06:00;13.95;;;7.22;;
77040;SDS011;65974;42.664;23.264;2023-01-15T01:08:26;8.43;;;5.97;;
77040;SDS011;65974;42.664;23.264;2023-01-15T01:11:04;12.60;;;6.97;;
77040;SDS011;65974;42.664;23.264;2023-01-15T01:13:32;23.48;;;11.25;;
77040;SDS011;65974;42.664;23.264;2023-01-15T01:16:00;17.85;;;8.88;;
77040;SDS011;65974;42.664;23.264;2023-01-15T01:18:26;15.35;;;8.10;;
77040;SDS011;65974;42.664;23.264;2023-01-15T01:20:52;12.75;;;9.32;;
77040;SDS011;65974;42.664;23.264;2023-01-15T01:23:17;11.80;;;6.38;;
77040;SDS011;65974;42.664;23.264;2023-01-15T01:25:43;12.25;;;6.80;;
77040;SDS011;65974;42.664;23.264;2023-01-15T01:28:08;12.18;;;6.78;;
77040;SDS011;65974;42.664;23.264;2023-01-15T01:30:34;11.90;;;6.85;;
77040;SDS011;65974;42.664;23.264;2023-01-15T01:32:59;12.50;;;7.80;;
77040;SDS011;65974;42.664;23.264;2023-01-15T01:35:24;12.48;;;8.07;;
77040;SDS011;65974;42.664;23.264;2023-01-15T01:37:50;14.93;;;7.43;;
77040;SDS011;65974;42.664;23.264;2023-01-15T01:40:16;12.65;;;7.00;;
77040;SDS011;65974;42.664;23.264;2023-01-15T01:42:42;10.13;;;6.68;;
77040;SDS011;65974;42.664;23.264;2023-01-15T01:45:11;10.02;;;6.68;;
77040;SDS011;65974;42.664;23.264;2023-01-15T01:47:43;10.73;;;6.72;;
77040;SDS011;65974;42.664;23.264;2023-01-15T01:50:11;8.35;;;5.75;;
77040;SDS011;65974;42.664;23.264;2023-01-15T01:52:40;14.27;;;7.63;;
77040;SDS011;65974;42.664;23.264;2023-01-15T01:55:09;16.55;;;8.63;;
77040;SDS011;65974;42.664;23.264;2023-01-15T01:57:36;17.85;;;9.90;;
77040;SDS011;65974;42.664;23.264;2023-01-15T02:00:04;188.82;;;68.00;;
77040;SDS011;65974;42.664;23.264;2023-01-15T02:02:30;49.17;;;22.77;;
77040;SDS011;65974;42.664;23.264;2023-01-15T02:04:57;20.17;;;9.88;;
77040;SDS011;65974;42.664;23.264;2023-01-15T02:07:23;9.77;;;5.03;;
77040;SDS011;65974;42.664;23.264;2023-01-15T02:09:49;17.35;;;7.93;;
77040;SDS011;65974;42.664;23.264;2023-01-15T02:12:34;10.18;;;6.60;;
77040;SDS011;65974;42.664;23.264;2023-01-15T02:15:18;16.23;;;8.73;;
77040;SDS011;65974;42.664;23.264;2023-01-15T02:18:01;8.73;;;5.13;;
77040;SDS011;65974;42.664;23.264;2023-01-15T02:28:50;17.20;;;8.57;;
77040;SDS011;65974;42.664;23.264;2023-01-15T02:31:32;8.80;;;6.10;;
77040;SDS011;65974;42.664;23.264;2023-01-15T02:34:02;13.65;;;8.55;;
77040;SDS011;65974;42.664;23.264;2023-01-15T02:36:40;12.68;;;6.50;;
77040;SDS011;65974;42.664;23.264;2023-01-15T02:39:08;16.13;;;8.75;;
77040;SDS011;65974;42.664;23.264;2023-01-15T02:41:46;43.30;;;21.83;;
77040;SDS011;65974;42.664;23.264;2023-01-15T02:44:18;19.80;;;12.23;;
77040;SDS011;65974;42.664;23.264;2023-01-15T02:46:46;15.25;;;9.48;;
77040;SDS011;65974;42.664;23.264;2023-01-15T02:49:13;14.23;;;9.75;;
77040;SDS011;65974;42.664;23.264;2023-01-15T02:52:04;14.60;;;8.13;;
77040;SDS011;65974;42.664;23.264;2023-01-15T02:54:42;17.80;;;9.55;;
77040;SDS011;65974;42.664;23.264;2023-01-15T02:57:20;16.73;;;8.02;;
77040;SDS011;65974;42.664;23.264;2023-01-15T02:59:48;14.40;;;9.50;;
77040;SDS011;65974;42.664;23.264;2023-01-15T03:02:18;17.60;;;10.40;;
77040;SDS011;65974;42.664;23.264;2023-01-15T03:07:48;13.20;;;8.38;;
77040;SDS011;65974;42.664;23.264;2023-01-15T03:10:25;26.17;;;11.88;;
77040;SDS011;65974;42.664;23.264;2023-01-15T03:13:20;21.48;;;9.77;;
77040;SDS011;65974;42.664;23.264;2023-01-15T03:16:07;15.93;;;9.90;;
77040;SDS011;65974;42.664;23.264;2023-01-15T03:19:15;13.88;;;7.53;;
77040;SDS011;65974;42.664;23.264;2023-01-15T03:24:23;15.10;;;7.97;;
77040;SDS011;65974;42.664;23.264;2023-01-15T03:27:08;13.93;;;7.50;;
77040;SDS011;65974;42.664;23.264;2023-01-15T03:29:39;10.52;;;6.15;;
77040;SDS011;65974;42.664;23.264;2023-01-15T03:32:09;21.10;;;8.40;;
77040;SDS011;65974;42.664;23.264;2023-01-15T03:34:39;17.92;;;8.52;;
77040;SDS011;65974;42.664;23.264;2023-01-15T03:37:07;14.80;;;6.38;;
77040;SDS011;65974;42.664;23.264;2023-01-15T03:39:33;9.43;;;6.18;;
77040;SDS011;65974;42.664;23.264;2023-01-15T03:50:08;13.30;;;6.95;;
77040;SDS011;65974;42.664;23.264;2023-01-15T03:53:11;10.98;;;7.28;;
77040;SDS011;65974;42.664;23.264;2023-01-15T03:58:24;12.10;;;7.35;;
77040;SDS011;65974;42.664;23.264;2023-01-15T04:00:54;8.45;;;4.53;;
77040;SDS011;65974;42.664;23.264;2023-01-15T04:05:49;15.30;;;7.75;;
77040;SDS011;65974;42.664;23.264;2023-01-15T04:08:18;14.18;;;7.88;;
77040;SDS011;65974;42.664;23.264;2023-01-15T04:10:53;14.45;;;7.15;;
77040;SDS011;65974;42.664;23.264;2023-01-15T04:13:21;5.78;;;3.75;;
77040;SDS011;65974;42.664;23.264;2023-01-15T04:15:46;15.32;;;8.38;;
77040;SDS011;65974;42.664;23.264;2023-01-15T04:18:12;9.55;;;6.03;;
77040;SDS011;65974;42.664;23.264;2023-01-15T04:20:37;14.07;;;8.90;;
77040;SDS011;65974;42.664;23.264;2023-01-15T04:23:02;26.20;;;13.98;;
77040;SDS011;65974;42.664;23.264;2023-01-15T04:25:28;17.55;;;8.85;;
77040;SDS011;65974;42.664;23.264;2023-01-15T04:27:53;13.02;;;9.38;;
77040;SDS011;65974;42.664;23.264;2023-01-15T04:30:19;22.13;;;10.95;;
77040;SDS011;65974;42.664;23.264;2023-01-15T04:32:47;20.58;;;7.20;;
77040;SDS011;65974;42.664;23.264;2023-01-15T04:35:13;13.43;;;8.45;;
77040;SDS011;65974;42.664;23.264;2023-01-15T04:37:39;10.18;;;6.30;;
77040;SDS011;65974;42.664;23.264;2023-01-15T04:40:05;16.88;;;9.10;;
77040;SDS011;65974;42.664;23.264;2023-01-15T04:42:31;18.73;;;11.18;;
77040;SDS011;65974;42.664;23.264;2023-01-15T04:45:14;19.98;;;8.63;;
77040;SDS011;65974;42.664;23.264;2023-01-15T04:47:40;28.98;;;12.48;;
77040;SDS011;65974;42.664;23.264;2023-01-15T04:50:05;20.73;;;10.00;;
77040;SDS011;65974;42.664;23.264;2023-01-15T04:52:31;21.15;;;8.93;;
77040;SDS011;65974;42.664;23.264;2023-01-15T04:54:57;17.80;;;9.15;;
77040;SDS011;65974;42.664;23.264;2023-01-15T04:57:22;15.90;;;8.60;;
77040;SDS011;65974;42.664;23.264;2023-01-15T04:59:48;21.13;;;9.05;;
77040;SDS011;65974;42.664;23.264;2023-01-15T05:02:13;18.08;;;10.43;;
77040;SDS011;65974;42.664;23.264;2023-01-15T05:04:38;24.13;;;9.00;;
77040;SDS011;65974;42.664;23.264;2023-01-15T05:07:04;19.33;;;10.88;;
77040;SDS011;65974;42.664;23.264;2023-01-15T05:09:30;19.55;;;10.10;;
77040;SDS011;65974;42.664;23.264;2023-01-15T05:11:56;19.90;;;12.55;;
77040;SDS011;65974;42.664;23.264;2023-01-15T05:14:21;17.40;;;7.82;;
77040;SDS011;65974;42.664;23.264;2023-01-15T05:16:47;15.40;;;8.32;;
77040;SDS011;65974;42.664;23.264;2023-01-15T05:19:12;17.20;;;7.93;;
77040;SDS011;65974;42.664;23.264;2023-01-15T05:21:41;15.00;;;7.82;;
77040;SDS011;65974;42.664;23.264;2023-01-15T05:24:09;28.60;;;13.15;;
77040;SDS011;65974;42.664;23.264;2023-01-15T05:26:37;24.10;;;12.52;;
77040;SDS011;65974;42.664;23.264;2023-01-15T05:29:03;41.97;;;21.20;;
77040;SDS011;65974;42.664;23.264;2023-01-15T05:31:29;52.85;;;24.30;;
77040;SDS011;65974;42.664;23.264;2023-01-15T05:33:57;54.45;;;23.63;;
77040;SDS011;65974;42.664;23.264;2023-01-15T05:36:24;30.42;;;15.52;;
77040;SDS011;65974;42.664;23.264;2023-01-15T05:38:55;20.13;;;10.38;;
77040;SDS011;65974;42.664;23.264;2023-01-15T05:41:23;20.90;;;11.25;;
77040;SDS011;65974;42.664;23.264;2023-01-15T05:44:09;18.20;;;9.82;;
77040;SDS011;65974;42.664;23.264;2023-01-15T05:46:36;26.23;;;13.85;;
77040;SDS011;65974;42.664;23.264;2023-01-15T05:49:05;12.10;;;6.75;;
77040;SDS011;65974;42.664;23.264;2023-01-15T05:51:33;15.95;;;9.93;;
77040;SDS011;65974;42.664;23.264;2023-01-15T05:54:00;20.80;;;10.60;;
77040;SDS011;65974;42.664;23.264;2023-01-15T05:56:26;12.50;;;7.97;;
77040;SDS011;65974;42.664;23.264;2023-01-15T05:58:51;11.80;;;8.07;;
77040;SDS011;65974;42.664;23.264;2023-01-15T06:01:17;17.33;;;11.25;;
77040;SDS011;65974;42.664;23.264;2023-01-15T06:03:43;19.02;;;11.88;;
77040;SDS011;65974;42.664;23.264;2023-01-15T06:06:12;12.00;;;8.25;;
77040;SDS011;65974;42.664;23.264;2023-01-15T06:08:39;17.10;;;8.68;;
77040;SDS011;65974;42.664;23.264;2023-01-15T06:11:04;20.63;;;10.98;;
77040;SDS011;65974;42.664;23.264;2023-01-15T06:13:32;104.28;;;36.67;;
77040;SDS011;65974;42.664;23.264;2023-01-15T06:15:58;14.98;;;11.95;;
77040;SDS011;65974;42.664;23.264;2023-01-15T06:18:24;18.10;;;8.80;;
77040;SDS011;65974;42.664;23.264;2023-01-15T06:20:50;20.98;;;12.32;;
77040;SDS011;65974;42.664;23.264;2023-01-15T06:23:16;25.40;;;12.13;;
77040;SDS011;65974;42.664;23.264;2023-01-15T06:25:42;16.50;;;10.52;;
77040;SDS011;65974;42.664;23.264;2023-01-15T06:28:08;28.40;;;18.33;;
77040;SDS011;65974;42.664;23.264;2023-01-15T06:30:34;23.48;;;14.48;;
77040;SDS011;65974;42.664;23.264;2023-01-15T06:33:03;25.98;;;14.98;;
77040;SDS011;65974;42.664;23.264;2023-01-15T06:35:28;14.98;;;9.73;;
77040;SDS011;65974;42.664;23.264;2023-01-15T06:37:54;17.10;;;10.60;;
77040;SDS011;65974;42.664;23.264;2023-01-15T06:40:19;24.60;;;12.30;;
77040;SDS011;65974;42.664;23.264;2023-01-15T06:42:45;24.00;;;13.60;;
77040;SDS011;65974;42.664;23.264;2023-01-15T06:45:32;20.90;;;10.00;;
77040;SDS011;65974;42.664;23.264;2023-01-15T06:48:21;105.03;;;48.20;;
77040;SDS011;65974;42.664;23.264;2023-01-15T06:50:46;25.58;;;13.15;;
77040;SDS011;65974;42.664;23.264;2023-01-15T06:53:12;9.80;;;6.53;;
77040;SDS011;65974;42.664;23.264;2023-01-15T06:55:38;14.45;;;8.13;;
77040;SDS011;65974;42.664;23.264;2023-01-15T06:58:03;14.07;;;8.75;;
77040;SDS011;65974;42.664;23.264;2023-01-15T07:00:28;16.50;;;9.30;;
77040;SDS011;65974;42.664;23.264;2023-01-15T07:02:54;20.63;;;10.65;;
77040;SDS011;65974;42.664;23.264;2023-01-15T07:05:19;21.55;;;9.90;;
77040;SDS011;65974;42.664;23.264;2023-01-15T07:07:45;22.60;;;9.93;;
77040;SDS011;65974;42.664;23.264;2023-01-15T07:10:10;15.77;;;12.15;;
77040;SDS011;65974;42.664;23.264;2023-01-15T07:12:35;12.57;;;9.20;;
77040;SDS011;65974;42.664;23.264;2023-01-15T07:15:01;23.08;;;12.75;;
77040;SDS011;65974;42.664;23.264;2023-01-15T07:17:26;20.52;;;10.50;;
77040;SDS011;65974;42.664;23.264;2023-01-15T07:19:52;22.40;;;9.02;;
77040;SDS011;65974;42.664;23.264;2023-01-15T07:22:18;15.68;;;9.15;;
77040;SDS011;65974;42.664;23.264;2023-01-15T07:24:44;14.98;;;8.65;;
77040;SDS011;65974;42.664;23.264;2023-01-15T07:27:09;13.93;;;7.22;;
77040;SDS011;65974;42.664;23.264;2023-01-15T07:29:34;15.45;;;10.07;;
77040;SDS011;65974;42.664;23.264;2023-01-15T07:32:00;17.92;;;12.73;;
77040;SDS011;65974;42.664;23.264;2023-01-15T07:34:26;17.20;;;9.98;;
77040;SDS011;65974;42.664;23.264;2023-01-15T07:36:51;27.67;;;13.38;;
77040;SDS011;65974;42.664;23.264;2023-01-15T07:39:17;31.27;;;17.90;;
77040;SDS011;65974;42.664;23.264;2023-01-15T07:41:42;13.20;;;8.38;;
77040;SDS011;65974;42.664;23.264;2023-01-15T07:44:26;14.00;;;8.18;;
77040;SDS011;65974;42.664;23.264;2023-01-15T07:47:14;12.95;;;7.40;;
77040;SDS011;65974;42.664;23.264;2023-01-15T07:50:05;10.40;;;6.57;;
77040;SDS011;65974;42.664;23.264;2023-01-15T07:52:33;20.45;;;12.43;;
77040;SDS011;65974;42.664;23.264;2023-01-15T07:54:59;12.65;;;7.40;;
77040;SDS011;65974;42.664;23.264;2023-01-15T07:57:25;6.80;;;5.25;;
77040;SDS011;65974;42.664;23.264;2023-01-15T07:59:50;11.85;;;7.15;;
77040;SDS011;65974;42.664;23.264;2023-01-15T08:02:16;12.00;;;6.28;;
77040;SDS011;65974;42.664;23.264;2023-01-15T08:04:42;12.50;;;7.47;;
77040;SDS011;65974;42.664;23.264;2023-01-15T08:07:08;9.68;;;6.60;;
77040;SDS011;65974;42.664;23.264;2023-01-15T08:09:34;9.68;;;4.68;;
77040;SDS011;65974;42.664;23.264;2023-01-15T08:12:00;14.13;;;5.88;;
77040;SDS011;65974;42.664;23.264;2023-01-15T08:14:49;9.05;;;5.15;;
77040;SDS011;65974;42.664;23.264;2023-01-15T08:17:34;8.98;;;5.22;;
77040;SDS011;65974;42.664;23.264;2023-01-15T08:20:04;9.07;;;5.13;;
77040;SDS011;65974;42.664;23.264;2023-01-15T08:22:32;5.05;;;4.53;;
77040;SDS011;65974;42.664;23.264;2023-01-15T08:24:58;11.25;;;6.28;;
77040;SDS011;65974;42.664;23.264;2023-01-15T08:27:23;10.00;;;5.60;;
77040;SDS011;65974;42.664;23.264;2023-01-15T08:29:49;13.48;;;8.23;;
77040;SDS011;65974;42.664;23.264;2023-01-15T08:32:15;13.43;;;7.38;;
77040;SDS011;65974;42.664;23.264;2023-01-15T08:34:40;15.07;;;6.10;;
77040;SDS011;65974;42.664;23.264;2023-01-15T08:37:05;8.60;;;4.90;;
77040;SDS011;65974;42.664;23.264;2023-01-15T08:39:32;9.43;;;5.40;;
77040;SDS011;65974;42.664;23.264;2023-01-15T08:41:59;10.35;;;6.07;;
77040;SDS011;65974;42.664;23.264;2023-01-15T08:44:24;8.10;;;4.40;;
77040;SDS011;65974;42.664;23.264;2023-01-15T08:46:50;12.68;;;6.93;;
77040;SDS011;65974;42.664;23.264;2023-01-15T08:49:16;3.30;;;2.47;;
77040;SDS011;65974;42.664;23.264;2023-01-15T08:51:43;15.55;;;8.10;;
77040;SDS011;65974;42.664;23.264;2023-01-15T08:54:09;8.15;;;7.15;;
77040;SDS011;65974;42.664;23.264;2023-01-15T08:56:36;9.02;;;6.70;;
77040;SDS011;65974;42.664;23.264;2023-01-15T08:59:05;11.85;;;6.32;;
77040;SDS011;65974;42.664;23.264;2023-01-15T09:01:32;6.03;;;4.05;;
77040;SDS011;65974;42.664;23.264;2023-01-15T09:03:58;10.98;;;6.93;;
77040;SDS011;65974;42.664;23.264;2023-01-15T09:06:23;12.88;;;8.13;;
77040;SDS011;65974;42.664;23.264;2023-01-15T09:08:49;10.43;;;5.07;;
77040;SDS011;65974;42.664;23.264;2023-01-15T09:11:15;19.80;;;9.48;;
77040;SDS011;65974;42.664;23.264;2023-01-15T09:13:40;19.98;;;9.77;;
77040;SDS011;65974;42.664;23.264;2023-01-15T09:16:06;18.65;;;10.65;;
77040;SDS011;65974;42.664;23.264;2023-01-15T09:18:35;20.92;;;12.25;;
77040;SDS011;65974;42.664;23.264;2023-01-15T09:21:01;17.13;;;8.25;;
77040;SDS011;65974;42.664;23.264;2023-01-15T09:23:27;14.38;;;8.27;;
77040;SDS011;65974;42.664;23.264;2023-01-15T09:25:53;19.50;;;9.40;;
77040;SDS011;65974;42.664;23.264;2023-01-15T09:28:20;14.98;;;10.00;;
77040;SDS011;65974;42.664;23.264;2023-01-15T09:30:45;13.57;;;9.05;;
77040;SDS011;65974;42.664;23.264;2023-01-15T09:33:11;15.57;;;9.70;;
77040;SDS011;65974;42.664;23.264;2023-01-15T09:35:36;16.73;;;7.80;;
77040;SDS011;65974;42.664;23.264;2023-01-15T09:38:02;17.25;;;8.50;;
77040;SDS011;65974;42.664;23.264;2023-01-15T09:43:42;12.95;;;8.77;;
77040;SDS011;65974;42.664;23.264;2023-01-15T09:46:20;24.02;;;9.82;;
77040;SDS011;65974;42.664;23.264;2023-01-15T09:52:10;14.95;;;8.30;;
77040;SDS011;65974;42.664;23.264;2023-01-15T09:57:17;17.52;;;8.85;;
77040;SDS011;65974;42.664;23.264;2023-01-15T09:59:44;17.40;;;8.82;;
77040;SDS011;65974;42.664;23.264;2023-01-15T10:04:51;15.57;;;8.18;;
77040;SDS011;65974;42.664;23.264;2023-01-15T10:10:10;17.63;;;11.43;;
77040;SDS011;65974;42.664;23.264;2023-01-15T10:12:39;16.27;;;9.10;;
77040;SDS011;65974;42.664;23.264;2023-01-15T10:18:05;19.08;;;8.98;;
77040;SDS011;65974;42.664;23.264;2023-01-15T10:23:36;16.33;;;9.43;;
77040;SDS011;65974;42.664;23.264;2023-01-15T10:26:12;19.85;;;9.45;;
77040;SDS011;65974;42.664;23.264;2023-01-15T10:28:57;16.45;;;10.35;;
77040;SDS011;65974;42.664;23.264;2023-01-15T10:31:36;18.60;;;9.25;;
77040;SDS011;65974;42.664;23.264;2023-01-15T10:45:23;25.45;;;12.40;;
77040;SDS011;65974;42.664;23.264;2023-01-15T10:47:59;21.92;;;12.55;;
77040;SDS011;65974;42.664;23.264;2023-01-15T10:50:30;23.92;;;12.57;;
77040;SDS011;65974;42.664;23.264;2023-01-15T10:55:51;24.80;;;12.80;;
77040;SDS011;65974;42.664;23.264;2023-01-15T11:03:33;20.20;;;12.70;;
77040;SDS011;65974;42.664;23.264;2023-01-15T11:06:01;19.90;;;10.32;;
77040;SDS011;65974;42.664;23.264;2023-01-15T11:08:27;16.00;;;11.20;;
77040;SDS011;65974;42.664;23.264;2023-01-15T11:10:57;18.90;;;11.55;;
77040;SDS011;65974;42.664;23.264;2023-01-15T11:13:50;19.73;;;10.85;;
77040;SDS011;65974;42.664;23.264;2023-01-15T11:16:35;19.33;;;10.82;;
77040;SDS011;65974;42.664;23.264;2023-01-15T11:19:39;31.60;;;14.93;;
77040;SDS011;65974;42.664;23.264;2023-01-15T11:22:15;26.63;;;14.98;;
77040;SDS011;65974;42.664;23.264;2023-01-15T11:24:45;30.75;;;14.65;;
77040;SDS011;65974;42.664;23.264;2023-01-15T11:27:27;26.15;;;13.90;;
77040;SDS011;65974;42.664;23.264;2023-01-15T11:29:57;21.58;;;11.02;;
77040;SDS011;65974;42.664;23.264;2023-01-15T11:32:29;30.05;;;16.88;;
77040;SDS011;65974;42.664;23.264;2023-01-15T11:35:00;19.83;;;11.70;;
77040;SDS011;65974;42.664;23.264;2023-01-15T11:37:26;19.83;;;11.13;;
77040;SDS011;65974;42.664;23.264;2023-01-15T11:39:56;21.67;;;12.38;;
77040;SDS011;65974;42.664;23.264;2023-01-15T11:42:32;19.25;;;11.32;;
77040;SDS011;65974;42.664;23.264;2023-01-15T11:45:20;25.65;;;16.55;;
77040;SDS011;65974;42.664;23.264;2023-01-15T11:48:41;21.40;;;11.15;;
77040;SDS011;65974;42.664;23.264;2023-01-15T11:51:17;29.02;;;15.45;;
77040;SDS011;65974;42.664;23.264;2023-01-15T11:53:45;23.60;;;11.85;;
77040;SDS011;65974;42.664;23.264;2023-01-15T11:56:20;17.77;;;10.27;;
77040;SDS011;65974;42.664;23.264;2023-01-15T11:58:52;16.83;;;11.70;;
77040;SDS011;65974;42.664;23.264;2023-01-15T12:01:30;17.77;;;9.50;;
77040;SDS011;65974;42.664;23.264;2023-01-15T12:03:59;16.73;;;9.93;;
77040;SDS011;65974;42.664;23.264;2023-01-15T12:06:26;19.17;;;12.57;;
77040;SDS011;65974;42.664;23.264;2023-01-15T12:12:04;18.52;;;11.45;;
77040;SDS011;65974;42.664;23.264;2023-01-15T12:14:58;17.17;;;10.15;;
77040;SDS011;65974;42.664;23.264;2023-01-15T12:31:19;20.90;;;10.50;;
77040;SDS011;65974;42.664;23.264;2023-01-15T12:33:54;18.90;;;10.93;;
77040;SDS011;65974;42.664;23.264;2023-01-15T12:36:46;17.40;;;8.80;;
77040;SDS011;65974;42.664;23.264;2023-01-15T12:39:29;16.60;;;9.73;;
77040;SDS011;65974;42.664;23.264;2023-01-15T12:42:06;15.07;;;8.90;;
77040;SDS011;65974;42.664;23.264;2023-01-15T12:44:55;15.93;;;9.68;;
77040;SDS011;65974;42.664;23.264;2023-01-15T12:47:27;17.27;;;9.10;;
77040;SDS011;65974;42.664;23.264;2023-01-15T12:52:35;13.70;;;7.70;;
77040;SDS011;65974;42.664;23.264;2023-01-15T12:57:37;13.43;;;7.88;;
77040;SDS011;65974;42.664;23.264;2023-01-15T13:00:13;15.90;;;9.63;;
77040;SDS011;65974;42.664;23.264;2023-01-15T13:03:02;17.00;;;10.48;;
77040;SDS011;65974;42.664;23.264;2023-01-15T13:05:53;21.15;;;9.77;;
77040;SDS011;65974;42.664;23.264;2023-01-15T13:10:53;13.88;;;7.47;;
77040;SDS011;65974;42.664;23.264;2023-01-15T13:13:19;15.05;;;9.05;;
77040;SDS011;65974;42.664;23.264;2023-01-15T13:21:26;15.35;;;9.13;;
77040;SDS011;65974;42.664;23.264;2023-01-15T13:32:27;14.07;;;8.18;;
77040;SDS011;65974;42.664;23.264;2023-01-15T13:37:23;16.42;;;8.02;;
77040;SDS011;65974;42.664;23.264;2023-01-15T13:42:48;15.18;;;8.38;;
77040;SDS011;65974;42.664;23.264;2023-01-15T13:48:05;11.20;;;7.28;;
77040;SDS011;65974;42.664;23.264;2023-01-15T13:50:40;14.18;;;9.75;;
77040;SDS011;65974;42.664;23.264;2023-01-15T13:56:06;14.10;;;8.75;;
77040;SDS011;65974;42.664;23.264;2023-01-15T13:58:50;15.05;;;8.32;;
77040;SDS011;65974;42.664;23.264;2023-01-15T14:01:38;11.10;;;6.40;;
77040;SDS011;65974;42.664;23.264;2023-01-15T14:37:00;21.33;;;10.90;;
77040;SDS011;65974;42.664;23.264;2023-01-15T14:39:48;20.50;;;10.25;;
77040;SDS011;65974;42.664;23.264;2023-01-15T14:42:24;15.25;;;10.23;;
77040;SDS011;65974;42.664;23.264;2023-01-15T14:45:39;22.48;;;12.02;;
77040;SDS011;65974;42.664;23.264;2023-01-15T14:55:50;20.45;;;12.02;;
77040;SDS011;65974;42.664;23.264;2023-01-15T15:01:13;26.25;;;15.02;;
77040;SDS011;65974;42.664;23.264;2023-01-15T15:03:49;16.83;;;9.30;;
77040;SDS011;65974;42.664;23.264;2023-01-15T15:06:20;17.23;;;10.25;;
77040;SDS011;65974;42.664;23.264;2023-01-15T15:08:46;21.73;;;11.27;;
77040;SDS011;65974;42.664;23.264;2023-01-15T15:11:20;26.45;;;14.30;;
77040;SDS011;65974;42.664;23.264;2023-01-15T15:14:07;27.40;;;14.10;;
77040;SDS011;65974;42.664;23.264;2023-01-15T15:16:39;18.10;;;12.48;;
77040;SDS011;65974;42.664;23.264;2023-01-15T15:19:14;26.02;;;13.27;;
77040;SDS011;65974;42.664;23.264;2023-01-15T15:21:45;24.60;;;13.88;;
77040;SDS011;65974;42.664;23.264;2023-01-15T15:26:54;22.88;;;12.60;;
77040;SDS011;65974;42.664;23.264;2023-01-15T15:29:20;28.27;;;15.40;;
77040;SDS011;65974;42.664;23.264;2023-01-15T15:31:53;36.38;;;19.15;;
77040;SDS011;65974;42.664;23.264;2023-01-15T15:36:50;28.13;;;16.98;;
77040;SDS011;65974;42.664;23.264;2023-01-15T15:39:19;48.40;;;26.75;;
77040;SDS011;65974;42.664;23.264;2023-01-15T15:41:54;35.17;;;20.52;;
77040;SDS011;65974;42.664;23.264;2023-01-15T15:44:44;33.17;;;19.17;;
77040;SDS011;65974;42.664;23.264;2023-01-15T15:47:39;46.17;;;25.02;;
77040;SDS011;65974;42.664;23.264;2023-01-15T15:52:52;41.33;;;24.38;;
77040;SDS011;65974;42.664;23.264;2023-01-15T15:55:18;53.47;;;29.08;;
77040;SDS011;65974;42.664;23.264;2023-01-15T15:57:49;49.63;;;28.63;;
77040;SDS011;65974;42.664;23.264;2023-01-15T16:00:24;48.35;;;26.25;;
77040;SDS011;65974;42.664;23.264;2023-01-15T16:02:54;47.50;;;25.90;;
77040;SDS011;65974;42.664;23.264;2023-01-15T16:05:26;49.75;;;27.23;;
77040;SDS011;65974;42.664;23.264;2023-01-15T16:08:05;125.15;;;61.63;;
77040;SDS011;65974;42.664;23.264;2023-01-15T16:10:38;60.10;;;32.67;;
77040;SDS011;65974;42.664;23.264;2023-01-15T16:13:04;67.88;;;33.40;;
77040;SDS011;65974;42.664;23.264;2023-01-15T16:15:38;68.43;;;39.00;;
77040;SDS011;65974;42.664;23.264;2023-01-15T16:18:05;52.42;;;29.65;;
77040;SDS011;65974;42.664;23.264;2023-01-15T16:20:46;56.33;;;28.67;;
77040;SDS011;65974;42.664;23.264;2023-01-15T16:23:25;55.00;;;32.28;;
77040;SDS011;65974;42.664;23.264;2023-01-15T16:28:37;46.35;;;26.58;;
77040;SDS011;65974;42.664;23.264;2023-01-15T16:31:07;50.88;;;27.38;;
77040;SDS011;65974;42.664;23.264;2023-01-15T16:33:34;51.33;;;26.30;;
77040;SDS011;65974;42.664;23.264;2023-01-15T16:36:01;56.75;;;29.27;;
77040;SDS011;65974;42.664;23.264;2023-01-15T16:38:41;57.35;;;29.48;;
77040;SDS011;65974;42.664;23.264;2023-01-15T16:41:19;59.25;;;32.17;;
77040;SDS011;65974;42.664;23.264;2023-01-15T16:43:55;54.72;;;28.58;;
77040;SDS011;65974;42.664;23.264;2023-01-15T16:46:23;49.80;;;28.15;;
77040;SDS011;65974;42.664;23.264;2023-01-15T16:51:45;44.85;;;24.88;;
77040;SDS011;65974;42.664;23.264;2023-01-15T16:57:04;61.83;;;33.75;;
77040;SDS011;65974;42.664;23.264;2023-01-15T16:59:55;50.85;;;26.20;;
77040;SDS011;65974;42.664;23.264;2023-01-15T17:02:23;58.42;;;31.10;;
77040;SDS011;65974;42.664;23.264;2023-01-15T17:04:54;53.72;;;31.95;;
77040;SDS011;65974;42.664;23.264;2023-01-15T17:07:23;50.13;;;27.77;;
77040;SDS011;65974;42.664;23.264;2023-01-15T17:09:57;44.25;;;24.40;;
77040;SDS011;65974;42.664;23.264;2023-01-15T17:12:42;47.97;;;25.92;;
77040;SDS011;65974;42.664;23.264;2023-01-15T17:17:50;50.08;;;30.05;;
77040;SDS011;65974;42.664;23.264;2023-01-15T17:20:17;56.42;;;30.30;;
77040;SDS011;65974;42.664;23.264;2023-01-15T17:22:45;51.95;;;29.13;;
77040;SDS011;65974;42.664;23.264;2023-01-15T17:25:31;52.78;;;30.35;;
77040;SDS011;65974;42.664;23.264;2023-01-15T17:27:58;48.10;;;28.00;;
77040;SDS011;65974;42.664;23.264;2023-01-15T17:30:24;55.92;;;30.13;;
77040;SDS011;65974;42.664;23.264;2023-01-15T17:32:59;60.53;;;35.60;;
77040;SDS011;65974;42.664;23.264;2023-01-15T17:35:28;60.25;;;33.03;;
77040;SDS011;65974;42.664;23.264;2023-01-15T17:38:00;61.60;;;32.45;;